sensor_id;sensor_type;location;lat;lon;timestamp;temperature;humidity
6496;DHT22;3281;47.658;9.166;2023-03-08T00:01:24;6.00;1.00
6496;DHT22;3281;47.658;9.166;2023-03-08T00:03:52;5.90;1.00
6496;DHT22;3281;47.658;9.166;2023-03-08T00:06:19;5.90;1.00
6496;DHT22;3281;47.658;9.166;2023-03-08T00:08:45;5.90;1.00
6496;DHT22;3281;47.658;9.166;2023-03-08T00:11:14;5.90;1.00
6496;DHT22;3281;47.658;9.166;2023-03-08T00:13:41;5.90;1.00
6496;DHT22;3281;47.658;9.166;2023-03-08T00:16:11;5.80;1.00
6496;DHT22;3281;47.658;9.166;2023-03-08T00:18:40;5.90;1.00
6496;DHT22;3281;47.658;9.166;2023-03-08T00:21:09;5.80;1.00
6496;DHT22;3281;47.658;9.166;2023-03-08T00:23:36;5.80;1.00
6496;DHT22;3281;47.658;9.166;2023-03-08T00:26:03;5.80;1.00
6496;DHT22;3281;47.658;9.166;2023-03-08T00:28:30;5.80;1.00
6496;DHT22;3281;47.658;9.166;2023-03-08T00:30:59;5.70;1.00
6496;DHT22;3281;47.658;9.166;2023-03-08T00:33:26;5.80;1.00
6496;DHT22;3281;47.658;9.166;2023-03-08T00:35:56;5.80;1.00
6496;DHT22;3281;47.658;9.166;2023-03-08T00:38:23;5.80;1.00
6496;DHT22;3281;47.658;9.166;2023-03-08T00:40:49;5.80;1.00
6496;DHT22;3281;47.658;9.166;2023-03-08T00:43:16;5.90;1.00
6496;DHT22;3281;47.658;9.166;2023-03-08T00:45:44;5.90;1.00
6496;DHT22;3281;47.658;9.166;2023-03-08T00:48:11;5.90;1.00
6496;DHT22;3281;47.658;9.166;2023-03-08T00:50:38;5.80;1.00
6496;DHT22;3281;47.658;9.166;2023-03-08T00:53:06;5.80;1.00
6496;DHT22;3281;47.658;9.166;2023-03-08T00:55:33;5.80;1.00
6496;DHT22;3281;47.658;9.166;2023-03-08T00:58:00;5.90;1.00
6496;DHT22;3281;47.658;9.166;2023-03-08T01:00:27;6.00;1.00
6496;DHT22;3281;47.658;9.166;2023-03-08T01:02:54;5.90;1.00
6496;DHT22;3281;47.658;9.166;2023-03-08T01:05:22;5.80;1.00
6496;DHT22;3281;47.658;9.166;2023-03-08T01:07:48;5.80;1.00
6496;DHT22;3281;47.658;9.166;2023-03-08T01:10:17;5.70;1.00
6496;DHT22;3281;47.658;9.166;2023-03-08T01:12:43;5.80;1.00
6496;DHT22;3281;47.658;9.166;2023-03-08T01:15:10;5.80;1.00
6496;DHT22;3281;47.658;9.166;2023-03-08T01:17:37;5.70;1.00
6496;DHT22;3281;47.658;9.166;2023-03-08T01:20:05;5.80;1.00
6496;DHT22;3281;47.658;9.166;2023-03-08T01:22:33;5.70;1.00
6496;DHT22;3281;47.658;9.166;2023-03-08T01:24:59;5.70;1.00
6496;DHT22;3281;47.658;9.166;2023-03-08T01:27:27;5.80;1.00
6496;DHT22;3281;47.658;9.166;2023-03-08T01:29:54;5.80;1.00
6496;DHT22;3281;47.658;9.166;2023-03-08T01:32:21;5.80;1.00
6496;DHT22;3281;47.658;9.166;2023-03-08T01:34:47;5.70;1.00
6496;DHT22;3281;47.658;9.166;2023-03-08T01:37:14;5.80;1.00
6496;DHT22;3281;47.658;9.166;2023-03-08T01:39:41;5.80;1.00
6496;DHT22;3281;47.658;9.166;2023-03-08T01:42:07;6.00;1.00
6496;DHT22;3281;47.658;9.166;2023-03-08T01:44:50;6.00;1.00
6496;DHT22;3281;47.658;9.166;2023-03-08T01:47:18;5.80;1.00
6496;DHT22;3281;47.658;9.166;2023-03-08T01:49:46;5.90;1.00
6496;DHT22;3281;47.658;9.166;2023-03-08T01:52:15;5.80;1.00
6496;DHT22;3281;47.658;9.166;2023-03-08T01:54:46;6.10;1.00
6496;DHT22;3281;47.658;9.166;2023-03-08T01:57:16;6.00;1.00
6496;DHT22;3281;47.658;9.166;2023-03-08T01:59:44;5.80;1.00
6496;DHT22;3281;47.658;9.166;2023-03-08T02:02:13;5.90;1.00
6496;DHT22;3281;47.658;9.166;2023-03-08T02:04:40;6.00;1.00
6496;DHT22;3281;47.658;9.166;2023-03-08T02:07:07;5.80;1.00
6496;DHT22;3281;47.658;9.166;2023-03-08T02:09:33;6.00;1.00
6496;DHT22;3281;47.658;9.166;2023-03-08T02:12:03;5.90;1.00
6496;DHT22;3281;47.658;9.166;2023-03-08T02:14:31;6.00;1.00
6496;DHT22;3281;47.658;9.166;2023-03-08T02:16:58;6.00;1.00
6496;DHT22;3281;47.658;9.166;2023-03-08T02:19:31;6.00;1.00
6496;DHT22;3281;47.658;9.166;2023-03-08T02:22:07;6.10;1.00
6496;DHT22;3281;47.658;9.166;2023-03-08T02:24:35;5.80;1.00
6496;DHT22;3281;47.658;9.166;2023-03-08T02:27:05;5.90;1.00
6496;DHT22;3281;47.658;9.166;2023-03-08T02:29:32;5.90;1.00
6496;DHT22;3281;47.658;9.166;2023-03-08T02:31:59;5.90;1.00
6496;DHT22;3281;47.658;9.166;2023-03-08T02:34:26;5.80;1.00
6496;DHT22;3281;47.658;9.166;2023-03-08T02:36:52;5.70;1.00
6496;DHT22;3281;47.658;9.166;2023-03-08T02:39:19;5.70;1.00
6496;DHT22;3281;47.658;9.166;2023-03-08T02:41:47;5.80;1.00
6496;DHT22;3281;47.658;9.166;2023-03-08T02:44:14;5.70;1.00
6496;DHT22;3281;47.658;9.166;2023-03-08T02:46:40;5.70;1.00
6496;DHT22;3281;47.658;9.166;2023-03-08T02:49:07;5.80;1.00
6496;DHT22;3281;47.658;9.166;2023-03-08T02:51:34;5.80;1.00
6496;DHT22;3281;47.658;9.166;2023-03-08T02:54:00;5.80;1.00
6496;DHT22;3281;47.658;9.166;2023-03-08T02:56:27;5.90;1.00
6496;DHT22;3281;47.658;9.166;2023-03-08T02:58:55;5.90;1.00
6496;DHT22;3281;47.658;9.166;2023-03-08T03:01:22;5.70;1.00
6496;DHT22;3281;47.658;9.166;2023-03-08T03:03:49;5.50;1.00
6496;DHT22;3281;47.658;9.166;2023-03-08T03:06:19;5.50;1.00
6496;DHT22;3281;47.658;9.166;2023-03-08T03:08:47;5.50;1.00
6496;DHT22;3281;47.658;9.166;2023-03-08T03:11:15;5.50;1.00
6496;DHT22;3281;47.658;9.166;2023-03-08T03:13:42;5.50;1.00
6496;DHT22;3281;47.658;9.166;2023-03-08T03:16:12;5.50;1.00
6496;DHT22;3281;47.658;9.166;2023-03-08T03:18:39;5.50;1.00
6496;DHT22;3281;47.658;9.166;2023-03-08T03:21:07;5.50;1.00
6496;DHT22;3281;47.658;9.166;2023-03-08T03:23:34;5.70;1.00
6496;DHT22;3281;47.658;9.166;2023-03-08T03:26:03;5.50;1.00
6496;DHT22;3281;47.658;9.166;2023-03-08T03:28:30;5.40;1.00
6496;DHT22;3281;47.658;9.166;2023-03-08T03:30:58;5.20;1.00
6496;DHT22;3281;47.658;9.166;2023-03-08T03:33:26;5.10;1.00
6496;DHT22;3281;47.658;9.166;2023-03-08T03:35:53;5.00;1.00
6496;DHT22;3281;47.658;9.166;2023-03-08T03:38:19;5.00;1.00
6496;DHT22;3281;47.658;9.166;2023-03-08T03:40:46;5.00;1.00
6496;DHT22;3281;47.658;9.166;2023-03-08T03:43:13;4.80;1.00
6496;DHT22;3281;47.658;9.166;2023-03-08T03:45:40;4.70;1.00
6496;DHT22;3281;47.658;9.166;2023-03-08T03:48:06;4.80;1.00
6496;DHT22;3281;47.658;9.166;2023-03-08T03:50:34;4.70;1.00
6496;DHT22;3281;47.658;9.166;2023-03-08T03:53:01;4.70;1.00
6496;DHT22;3281;47.658;9.166;2023-03-08T03:55:28;4.90;1.00
6496;DHT22;3281;47.658;9.166;2023-03-08T03:57:54;5.00;1.00
6496;DHT22;3281;47.658;9.166;2023-03-08T04:00:21;5.20;1.00
6496;DHT22;3281;47.658;9.166;2023-03-08T04:02:48;5.00;1.00
6496;DHT22;3281;47.658;9.166;2023-03-08T04:05:14;5.00;1.00
6496;DHT22;3281;47.658;9.166;2023-03-08T04:07:42;5.10;1.00
6496;DHT22;3281;47.658;9.166;2023-03-08T04:10:10;5.00;1.00
6496;DHT22;3281;47.658;9.166;2023-03-08T04:12:36;5.00;1.00
6496;DHT22;3281;47.658;9.166;2023-03-08T04:15:04;4.80;1.00
6496;DHT22;3281;47.658;9.166;2023-03-08T04:17:32;4.80;1.00
6496;DHT22;3281;47.658;9.166;2023-03-08T04:19:58;4.80;1.00
6496;DHT22;3281;47.658;9.166;2023-03-08T04:22:25;4.60;1.00
6496;DHT22;3281;47.658;9.166;2023-03-08T04:24:53;4.50;1.00
6496;DHT22;3281;47.658;9.166;2023-03-08T04:27:20;4.50;1.00
6496;DHT22;3281;47.658;9.166;2023-03-08T04:29:47;4.40;1.00
6496;DHT22;3281;47.658;9.166;2023-03-08T04:32:13;4.30;1.00
6496;DHT22;3281;47.658;9.166;2023-03-08T04:34:40;4.40;1.00
6496;DHT22;3281;47.658;9.166;2023-03-08T04:37:09;4.30;1.00
6496;DHT22;3281;47.658;9.166;2023-03-08T04:39:36;4.30;1.00
6496;DHT22;3281;47.658;9.166;2023-03-08T04:42:04;4.40;1.00
6496;DHT22;3281;47.658;9.166;2023-03-08T04:44:31;4.40;1.00
6496;DHT22;3281;47.658;9.166;2023-03-08T04:46:58;4.40;1.00
6496;DHT22;3281;47.658;9.166;2023-03-08T04:49:25;4.20;1.00
6496;DHT22;3281;47.658;9.166;2023-03-08T04:51:52;4.20;1.00
6496;DHT22;3281;47.658;9.166;2023-03-08T04:54:18;4.30;1.00
6496;DHT22;3281;47.658;9.166;2023-03-08T04:56:45;4.30;1.00
6496;DHT22;3281;47.658;9.166;2023-03-08T04:59:13;4.40;1.00
6496;DHT22;3281;47.658;9.166;2023-03-08T05:01:40;4.50;1.00
6496;DHT22;3281;47.658;9.166;2023-03-08T05:04:09;4.40;1.00
6496;DHT22;3281;47.658;9.166;2023-03-08T05:06:36;4.40;1.00
6496;DHT22;3281;47.658;9.166;2023-03-08T05:09:03;4.50;1.00
6496;DHT22;3281;47.658;9.166;2023-03-08T05:11:30;4.60;1.00
6496;DHT22;3281;47.658;9.166;2023-03-08T05:13:58;4.50;1.00
6496;DHT22;3281;47.658;9.166;2023-03-08T05:16:26;4.50;1.00
6496;DHT22;3281;47.658;9.166;2023-03-08T05:18:53;4.30;1.00
6496;DHT22;3281;47.658;9.166;2023-03-08T05:21:21;4.30;1.00
6496;DHT22;3281;47.658;9.166;2023-03-08T05:23:47;4.50;1.00
6496;DHT22;3281;47.658;9.166;2023-03-08T05:26:16;4.60;1.00
6496;DHT22;3281;47.658;9.166;2023-03-08T05:28:43;4.60;1.00
6496;DHT22;3281;47.658;9.166;2023-03-08T05:31:11;4.50;1.00
6496;DHT22;3281;47.658;9.166;2023-03-08T05:33:40;4.30;1.00
6496;DHT22;3281;47.658;9.166;2023-03-08T05:36:07;4.40;1.00
6496;DHT22;3281;47.658;9.166;2023-03-08T05:38:35;4.50;1.00
6496;DHT22;3281;47.658;9.166;2023-03-08T05:41:04;4.40;1.00
6496;DHT22;3281;47.658;9.166;2023-03-08T05:43:31;4.70;1.00
6496;DHT22;3281;47.658;9.166;2023-03-08T05:45:59;4.60;1.00
6496;DHT22;3281;47.658;9.166;2023-03-08T05:48:27;4.80;1.00
6496;DHT22;3281;47.658;9.166;2023-03-08T05:50:55;4.70;1.00
6496;DHT22;3281;47.658;9.166;2023-03-08T05:53:22;4.60;1.00
6496;DHT22;3281;47.658;9.166;2023-03-08T05:55:49;4.70;1.00
6496;DHT22;3281;47.658;9.166;2023-03-08T05:58:16;4.80;1.00
6496;DHT22;3281;47.658;9.166;2023-03-08T06:00:42;4.80;1.00
6496;DHT22;3281;47.658;9.166;2023-03-08T06:03:09;4.90;1.00
6496;DHT22;3281;47.658;9.166;2023-03-08T06:05:36;4.90;1.00
6496;DHT22;3281;47.658;9.166;2023-03-08T06:08:04;5.10;1.00
6496;DHT22;3281;47.658;9.166;2023-03-08T06:10:31;5.30;1.00
6496;DHT22;3281;47.658;9.166;2023-03-08T06:12:58;5.30;1.00
6496;DHT22;3281;47.658;9.166;2023-03-08T06:15:24;5.40;1.00
6496;DHT22;3281;47.658;9.166;2023-03-08T06:17:52;5.50;1.00
6496;DHT22;3281;47.658;9.166;2023-03-08T06:20:19;5.50;1.00
6496;DHT22;3281;47.658;9.166;2023-03-08T06:22:46;5.50;1.00
6496;DHT22;3281;47.658;9.166;2023-03-08T06:25:14;5.40;1.00
6496;DHT22;3281;47.658;9.166;2023-03-08T06:27:41;5.60;1.00
6496;DHT22;3281;47.658;9.166;2023-03-08T06:30:08;5.80;1.00
6496;DHT22;3281;47.658;9.166;2023-03-08T06:32:35;5.80;1.00
6496;DHT22;3281;47.658;9.166;2023-03-08T06:35:02;5.80;1.00
6496;DHT22;3281;47.658;9.166;2023-03-08T06:37:32;5.80;1.00
6496;DHT22;3281;47.658;9.166;2023-03-08T06:39:59;6.00;1.00
6496;DHT22;3281;47.658;9.166;2023-03-08T06:42:27;6.10;1.00
6496;DHT22;3281;47.658;9.166;2023-03-08T06:44:54;6.20;1.00
6496;DHT22;3281;47.658;9.166;2023-03-08T06:47:20;6.30;1.00
6496;DHT22;3281;47.658;9.166;2023-03-08T06:49:47;6.30;1.00
6496;DHT22;3281;47.658;9.166;2023-03-08T06:52:15;6.30;1.00
6496;DHT22;3281;47.658;9.166;2023-03-08T06:54:41;6.40;1.00
6496;DHT22;3281;47.658;9.166;2023-03-08T06:57:08;6.40;1.00
6496;DHT22;3281;47.658;9.166;2023-03-08T06:59:36;6.30;1.00
6496;DHT22;3281;47.658;9.166;2023-03-08T07:02:03;6.30;1.00
6496;DHT22;3281;47.658;9.166;2023-03-08T07:04:29;6.40;1.00
6496;DHT22;3281;47.658;9.166;2023-03-08T07:06:56;6.40;1.00
6496;DHT22;3281;47.658;9.166;2023-03-08T07:09:23;6.40;1.00
6496;DHT22;3281;47.658;9.166;2023-03-08T07:11:50;6.40;1.00
6496;DHT22;3281;47.658;9.166;2023-03-08T07:14:17;6.50;1.00
6496;DHT22;3281;47.658;9.166;2023-03-08T07:16:45;6.50;1.00
6496;DHT22;3281;47.658;9.166;2023-03-08T07:19:13;6.60;1.00
6496;DHT22;3281;47.658;9.166;2023-03-08T07:21:39;6.90;1.00
6496;DHT22;3281;47.658;9.166;2023-03-08T07:24:08;7.00;1.00
6496;DHT22;3281;47.658;9.166;2023-03-08T07:26:35;7.00;1.00
6496;DHT22;3281;47.658;9.166;2023-03-08T07:29:02;7.00;1.00
6496;DHT22;3281;47.658;9.166;2023-03-08T07:31:29;7.20;1.00
6496;DHT22;3281;47.658;9.166;2023-03-08T07:33:58;7.30;1.00
6496;DHT22;3281;47.658;9.166;2023-03-08T07:36:24;7.40;1.00
6496;DHT22;3281;47.658;9.166;2023-03-08T07:38:51;7.50;1.00
6496;DHT22;3281;47.658;9.166;2023-03-08T07:41:18;7.60;1.00
6496;DHT22;3281;47.658;9.166;2023-03-08T07:43:44;7.70;1.00
6496;DHT22;3281;47.658;9.166;2023-03-08T07:46:13;7.60;1.00
6496;DHT22;3281;47.658;9.166;2023-03-08T07:48:39;7.70;1.00
6496;DHT22;3281;47.658;9.166;2023-03-08T07:51:07;7.70;1.00
6496;DHT22;3281;47.658;9.166;2023-03-08T07:53:35;7.80;1.00
6496;DHT22;3281;47.658;9.166;2023-03-08T07:56:02;7.80;1.00
6496;DHT22;3281;47.658;9.166;2023-03-08T07:58:29;7.80;1.00
6496;DHT22;3281;47.658;9.166;2023-03-08T08:00:56;8.00;1.00
6496;DHT22;3281;47.658;9.166;2023-03-08T08:03:23;7.80;1.00
6496;DHT22;3281;47.658;9.166;2023-03-08T08:05:50;7.80;1.00
6496;DHT22;3281;47.658;9.166;2023-03-08T08:08:18;7.80;1.00
6496;DHT22;3281;47.658;9.166;2023-03-08T08:10:44;7.90;1.00
6496;DHT22;3281;47.658;9.166;2023-03-08T08:13:11;7.80;1.00
6496;DHT22;3281;47.658;9.166;2023-03-08T08:15:38;7.80;1.00
6496;DHT22;3281;47.658;9.166;2023-03-08T08:18:05;7.70;1.00
6496;DHT22;3281;47.658;9.166;2023-03-08T08:20:31;7.80;1.00
6496;DHT22;3281;47.658;9.166;2023-03-08T08:22:58;7.90;1.00
6496;DHT22;3281;47.658;9.166;2023-03-08T08:25:26;8.10;1.00
6496;DHT22;3281;47.658;9.166;2023-03-08T08:27:53;8.00;1.00
6496;DHT22;3281;47.658;9.166;2023-03-08T08:30:19;8.00;1.00
6496;DHT22;3281;47.658;9.166;2023-03-08T08:32:46;8.00;1.00
6496;DHT22;3281;47.658;9.166;2023-03-08T08:35:13;8.20;1.00
6496;DHT22;3281;47.658;9.166;2023-03-08T08:37:39;8.40;1.00
6496;DHT22;3281;47.658;9.166;2023-03-08T08:40:07;8.50;1.00
6496;DHT22;3281;47.658;9.166;2023-03-08T08:42:37;8.90;1.00
6496;DHT22;3281;47.658;9.166;2023-03-08T08:45:05;8.90;1.00
6496;DHT22;3281;47.658;9.166;2023-03-08T08:47:32;8.80;1.00
6496;DHT22;3281;47.658;9.166;2023-03-08T08:49:58;9.00;1.00
6496;DHT22;3281;47.658;9.166;2023-03-08T08:52:25;8.90;1.00
6496;DHT22;3281;47.658;9.166;2023-03-08T08:54:52;8.90;1.00
6496;DHT22;3281;47.658;9.166;2023-03-08T08:57:19;8.60;1.00
6496;DHT22;3281;47.658;9.166;2023-03-08T08:59:47;8.60;1.00
6496;DHT22;3281;47.658;9.166;2023-03-08T09:02:13;8.70;1.00
6496;DHT22;3281;47.658;9.166;2023-03-08T09:04:40;8.70;1.00
6496;DHT22;3281;47.658;9.166;2023-03-08T09:07:07;8.80;1.00
6496;DHT22;3281;47.658;9.166;2023-03-08T09:09:33;8.90;1.00
6496;DHT22;3281;47.658;9.166;2023-03-08T09:12:00;8.60;1.00
6496;DHT22;3281;47.658;9.166;2023-03-08T09:14:27;8.70;1.00
6496;DHT22;3281;47.658;9.166;2023-03-08T09:16:55;8.70;1.00
6496;DHT22;3281;47.658;9.166;2023-03-08T09:19:21;8.80;1.00
6496;DHT22;3281;47.658;9.166;2023-03-08T09:21:48;8.90;1.00
6496;DHT22;3281;47.658;9.166;2023-03-08T09:24:15;9.10;1.00
6496;DHT22;3281;47.658;9.166;2023-03-08T09:26:42;9.50;1.00
6496;DHT22;3281;47.658;9.166;2023-03-08T09:29:09;9.90;1.00
6496;DHT22;3281;47.658;9.166;2023-03-08T09:31:37;9.60;1.00
6496;DHT22;3281;47.658;9.166;2023-03-08T09:34:06;9.70;1.00
6496;DHT22;3281;47.658;9.166;2023-03-08T09:36:34;9.70;1.00
6496;DHT22;3281;47.658;9.166;2023-03-08T09:39:01;9.60;1.00
6496;DHT22;3281;47.658;9.166;2023-03-08T09:41:48;9.50;1.00
6496;DHT22;3281;47.658;9.166;2023-03-08T09:47:20;9.40;1.00
6496;DHT22;3281;47.658;9.166;2023-03-08T09:49:54;9.20;1.00
6496;DHT22;3281;47.658;9.166;2023-03-08T09:52:29;9.20;1.00
6496;DHT22;3281;47.658;9.166;2023-03-08T09:54:58;9.10;1.00
6496;DHT22;3281;47.658;9.166;2023-03-08T09:57:29;9.40;1.00
6496;DHT22;3281;47.658;9.166;2023-03-08T09:59:59;9.60;1.00
6496;DHT22;3281;47.658;9.166;2023-03-08T10:02:34;9.70;1.00
6496;DHT22;3281;47.658;9.166;2023-03-08T10:05:06;9.50;1.00
6496;DHT22;3281;47.658;9.166;2023-03-08T10:07:46;9.70;1.00
6496;DHT22;3281;47.658;9.166;2023-03-08T10:10:27;9.70;1.00
6496;DHT22;3281;47.658;9.166;2023-03-08T10:13:06;10.10;1.00
6496;DHT22;3281;47.658;9.166;2023-03-08T10:15:40;10.40;1.00
6496;DHT22;3281;47.658;9.166;2023-03-08T10:18:14;11.40;1.00
6496;DHT22;3281;47.658;9.166;2023-03-08T10:20:44;12.70;1.00
6496;DHT22;3281;47.658;9.166;2023-03-08T10:23:14;12.60;1.00
6496;DHT22;3281;47.658;9.166;2023-03-08T10:25:42;13.60;1.00
6496;DHT22;3281;47.658;9.166;2023-03-08T10:28:12;12.80;1.00
6496;DHT22;3281;47.658;9.166;2023-03-08T10:30:41;13.00;1.00
6496;DHT22;3281;47.658;9.166;2023-03-08T10:33:11;12.30;1.00
6496;DHT22;3281;47.658;9.166;2023-03-08T10:35:53;12.70;1.00
6496;DHT22;3281;47.658;9.166;2023-03-08T10:38:21;11.90;1.00
6496;DHT22;3281;47.658;9.166;2023-03-08T10:40:48;12.20;1.00
6496;DHT22;3281;47.658;9.166;2023-03-08T10:43:27;12.60;1.00
6496;DHT22;3281;47.658;9.166;2023-03-08T10:45:59;13.10;1.00
6496;DHT22;3281;47.658;9.166;2023-03-08T10:48:27;13.20;1.00
6496;DHT22;3281;47.658;9.166;2023-03-08T10:50:59;12.50;1.00
6496;DHT22;3281;47.658;9.166;2023-03-08T10:53:26;11.80;1.00
6496;DHT22;3281;47.658;9.166;2023-03-08T10:55:55;11.60;1.00
6496;DHT22;3281;47.658;9.166;2023-03-08T10:58:30;11.10;1.00
6496;DHT22;3281;47.658;9.166;2023-03-08T11:00:59;11.90;1.00
6496;DHT22;3281;47.658;9.166;2023-03-08T11:03:27;11.70;1.00
6496;DHT22;3281;47.658;9.166;2023-03-08T11:05:56;12.20;1.00
6496;DHT22;3281;47.658;9.166;2023-03-08T11:08:26;11.50;1.00
6496;DHT22;3281;47.658;9.166;2023-03-08T11:11:01;11.50;1.00
6496;DHT22;3281;47.658;9.166;2023-03-08T11:13:29;12.00;1.00
6496;DHT22;3281;47.658;9.166;2023-03-08T11:16:20;11.70;1.00
6496;DHT22;3281;47.658;9.166;2023-03-08T11:18:59;11.60;1.00
6496;DHT22;3281;47.658;9.166;2023-03-08T11:21:31;11.30;1.00
6496;DHT22;3281;47.658;9.166;2023-03-08T11:24:09;11.60;1.00
6496;DHT22;3281;47.658;9.166;2023-03-08T11:26:43;11.60;1.00
6496;DHT22;3281;47.658;9.166;2023-03-08T11:29:20;11.60;1.00
6496;DHT22;3281;47.658;9.166;2023-03-08T11:31:53;11.70;1.00
6496;DHT22;3281;47.658;9.166;2023-03-08T11:37:25;11.10;1.00
6496;DHT22;3281;47.658;9.166;2023-03-08T11:40:01;10.90;1.00
6496;DHT22;3281;47.658;9.166;2023-03-08T11:42:40;11.20;1.00
6496;DHT22;3281;47.658;9.166;2023-03-08T11:45:19;11.30;1.00
6496;DHT22;3281;47.658;9.166;2023-03-08T11:48:20;11.70;1.00
6496;DHT22;3281;47.658;9.166;2023-03-08T11:50:52;12.50;1.00
6496;DHT22;3281;47.658;9.166;2023-03-08T11:53:30;12.30;1.00
6496;DHT22;3281;47.658;9.166;2023-03-08T11:56:21;12.20;1.00
6496;DHT22;3281;47.658;9.166;2023-03-08T11:58:57;11.60;1.00
6496;DHT22;3281;47.658;9.166;2023-03-08T12:01:27;11.60;1.00
6496;DHT22;3281;47.658;9.166;2023-03-08T12:03:57;11.70;1.00
6496;DHT22;3281;47.658;9.166;2023-03-08T12:06:28;11.30;1.00
6496;DHT22;3281;47.658;9.166;2023-03-08T12:08:59;11.10;1.00
6496;DHT22;3281;47.658;9.166;2023-03-08T12:11:31;11.10;1.00
6496;DHT22;3281;47.658;9.166;2023-03-08T12:14:04;11.40;1.00
6496;DHT22;3281;47.658;9.166;2023-03-08T12:16:38;11.20;1.00
6496;DHT22;3281;47.658;9.166;2023-03-08T12:19:13;11.00;1.00
6496;DHT22;3281;47.658;9.166;2023-03-08T12:21:46;11.00;1.00
6496;DHT22;3281;47.658;9.166;2023-03-08T12:24:29;11.20;1.00
6496;DHT22;3281;47.658;9.166;2023-03-08T12:27:03;11.10;1.00
6496;DHT22;3281;47.658;9.166;2023-03-08T12:29:36;11.00;1.00
6496;DHT22;3281;47.658;9.166;2023-03-08T12:32:05;11.00;1.00
6496;DHT22;3281;47.658;9.166;2023-03-08T12:34:36;10.90;1.00
6496;DHT22;3281;47.658;9.166;2023-03-08T12:37:03;11.00;1.00
6496;DHT22;3281;47.658;9.166;2023-03-08T12:39:32;11.30;1.00
6496;DHT22;3281;47.658;9.166;2023-03-08T12:42:12;11.30;1.00
6496;DHT22;3281;47.658;9.166;2023-03-08T12:44:40;11.40;1.00
6496;DHT22;3281;47.658;9.166;2023-03-08T12:47:18;11.60;1.00
6496;DHT22;3281;47.658;9.166;2023-03-08T12:49:49;11.70;1.00
6496;DHT22;3281;47.658;9.166;2023-03-08T12:52:26;11.50;1.00
6496;DHT22;3281;47.658;9.166;2023-03-08T12:54:56;11.50;1.00
6496;DHT22;3281;47.658;9.166;2023-03-08T12:57:28;11.40;1.00
6496;DHT22;3281;47.658;9.166;2023-03-08T12:59:57;11.40;1.00
6496;DHT22;3281;47.658;9.166;2023-03-08T13:02:27;11.60;1.00
6496;DHT22;3281;47.658;9.166;2023-03-08T13:05:17;11.60;1.00
6496;DHT22;3281;47.658;9.166;2023-03-08T13:08:01;11.30;1.00
6496;DHT22;3281;47.658;9.166;2023-03-08T13:10:31;11.40;1.00
6496;DHT22;3281;47.658;9.166;2023-03-08T13:13:14;11.50;1.00
6496;DHT22;3281;47.658;9.166;2023-03-08T13:15:42;11.80;1.00
6496;DHT22;3281;47.658;9.166;2023-03-08T13:18:14;11.70;1.00
6496;DHT22;3281;47.658;9.166;2023-03-08T13:20:54;11.80;1.00
6496;DHT22;3281;47.658;9.166;2023-03-08T13:23:27;11.80;1.00
6496;DHT22;3281;47.658;9.166;2023-03-08T13:29:11;12.00;1.00
6496;DHT22;3281;47.658;9.166;2023-03-08T13:31:38;11.80;1.00
6496;DHT22;3281;47.658;9.166;2023-03-08T13:34:23;11.90;1.00
6496;DHT22;3281;47.658;9.166;2023-03-08T13:36:50;11.90;1.00
6496;DHT22;3281;47.658;9.166;2023-03-08T13:39:18;11.90;1.00
6496;DHT22;3281;47.658;9.166;2023-03-08T13:41:46;12.00;1.00
6496;DHT22;3281;47.658;9.166;2023-03-08T13:44:15;12.10;1.00
6496;DHT22;3281;47.658;9.166;2023-03-08T13:46:43;12.30;1.00
6496;DHT22;3281;47.658;9.166;2023-03-08T13:49:18;12.10;1.00
6496;DHT22;3281;47.658;9.166;2023-03-08T13:51:48;12.20;1.00
6496;DHT22;3281;47.658;9.166;2023-03-08T13:54:20;12.10;1.00
6496;DHT22;3281;47.658;9.166;2023-03-08T13:56:54;12.10;1.00
6496;DHT22;3281;47.658;9.166;2023-03-08T13:59:22;11.90;1.00
6496;DHT22;3281;47.658;9.166;2023-03-08T14:01:50;11.90;1.00
6496;DHT22;3281;47.658;9.166;2023-03-08T14:04:19;11.80;1.00
6496;DHT22;3281;47.658;9.166;2023-03-08T14:06:51;11.90;1.00
6496;DHT22;3281;47.658;9.166;2023-03-08T14:09:18;11.80;1.00
6496;DHT22;3281;47.658;9.166;2023-03-08T14:11:52;11.80;1.00
6496;DHT22;3281;47.658;9.166;2023-03-08T14:14:24;11.90;1.00
6496;DHT22;3281;47.658;9.166;2023-03-08T14:16:53;12.10;1.00
6496;DHT22;3281;47.658;9.166;2023-03-08T14:19:23;11.90;1.00
6496;DHT22;3281;47.658;9.166;2023-03-08T14:21:51;11.90;1.00
6496;DHT22;3281;47.658;9.166;2023-03-08T14:24:20;12.00;1.00
6496;DHT22;3281;47.658;9.166;2023-03-08T14:26:53;12.10;1.00
6496;DHT22;3281;47.658;9.166;2023-03-08T14:29:23;12.00;1.00
6496;DHT22;3281;47.658;9.166;2023-03-08T14:31:58;12.10;1.00
6496;DHT22;3281;47.658;9.166;2023-03-08T14:34:26;12.00;1.00
6496;DHT22;3281;47.658;9.166;2023-03-08T14:36:56;12.10;1.00
6496;DHT22;3281;47.658;9.166;2023-03-08T14:39:25;12.20;1.00
6496;DHT22;3281;47.658;9.166;2023-03-08T14:41:53;12.20;1.00
6496;DHT22;3281;47.658;9.166;2023-03-08T14:44:23;12.30;1.00
6496;DHT22;3281;47.658;9.166;2023-03-08T14:46:51;12.30;1.00
6496;DHT22;3281;47.658;9.166;2023-03-08T14:49:24;12.30;1.00
6496;DHT22;3281;47.658;9.166;2023-03-08T14:51:51;12.40;1.00
6496;DHT22;3281;47.658;9.166;2023-03-08T14:54:21;12.40;1.00
6496;DHT22;3281;47.658;9.166;2023-03-08T14:56:48;12.40;1.00
6496;DHT22;3281;47.658;9.166;2023-03-08T14:59:16;12.40;1.00
6496;DHT22;3281;47.658;9.166;2023-03-08T15:01:44;12.40;1.00
6496;DHT22;3281;47.658;9.166;2023-03-08T15:04:16;12.60;1.00
6496;DHT22;3281;47.658;9.166;2023-03-08T15:06:43;12.70;1.00
6496;DHT22;3281;47.658;9.166;2023-03-08T15:09:12;12.70;1.00
6496;DHT22;3281;47.658;9.166;2023-03-08T15:11:40;12.90;1.00
6496;DHT22;3281;47.658;9.166;2023-03-08T15:14:08;12.80;1.00
6496;DHT22;3281;47.658;9.166;2023-03-08T15:16:35;12.70;1.00
6496;DHT22;3281;47.658;9.166;2023-03-08T15:19:04;12.60;1.00
6496;DHT22;3281;47.658;9.166;2023-03-08T15:21:32;12.60;1.00
6496;DHT22;3281;47.658;9.166;2023-03-08T15:24:00;12.60;1.00
6496;DHT22;3281;47.658;9.166;2023-03-08T15:26:29;12.70;1.00
6496;DHT22;3281;47.658;9.166;2023-03-08T15:28:57;12.70;1.00
6496;DHT22;3281;47.658;9.166;2023-03-08T15:31:27;12.60;1.00
6496;DHT22;3281;47.658;9.166;2023-03-08T15:33:54;12.50;1.00
6496;DHT22;3281;47.658;9.166;2023-03-08T15:36:22;12.40;1.00
6496;DHT22;3281;47.658;9.166;2023-03-08T15:38:49;12.40;1.00
6496;DHT22;3281;47.658;9.166;2023-03-08T15:41:16;12.40;1.00
6496;DHT22;3281;47.658;9.166;2023-03-08T15:43:43;12.30;1.00
6496;DHT22;3281;47.658;9.166;2023-03-08T15:46:11;12.10;1.00
6496;DHT22;3281;47.658;9.166;2023-03-08T15:48:38;11.90;1.00
6496;DHT22;3281;47.658;9.166;2023-03-08T15:51:05;11.70;1.00
6496;DHT22;3281;47.658;9.166;2023-03-08T15:53:33;11.50;1.00
6496;DHT22;3281;47.658;9.166;2023-03-08T15:55:59;11.50;1.00
6496;DHT22;3281;47.658;9.166;2023-03-08T15:58:26;11.40;1.00
6496;DHT22;3281;47.658;9.166;2023-03-08T16:00:53;11.40;1.00
6496;DHT22;3281;47.658;9.166;2023-03-08T16:03:20;11.50;1.00
6496;DHT22;3281;47.658;9.166;2023-03-08T16:05:53;11.30;1.00
6496;DHT22;3281;47.658;9.166;2023-03-08T16:08:19;11.30;1.00
6496;DHT22;3281;47.658;9.166;2023-03-08T16:10:54;11.30;1.00
6496;DHT22;3281;47.658;9.166;2023-03-08T16:13:24;11.30;1.00
6496;DHT22;3281;47.658;9.166;2023-03-08T16:15:51;11.20;1.00
6496;DHT22;3281;47.658;9.166;2023-03-08T16:18:18;11.20;1.00
6496;DHT22;3281;47.658;9.166;2023-03-08T16:20:44;11.10;1.00
6496;DHT22;3281;47.658;9.166;2023-03-08T16:23:11;11.10;1.00
6496;DHT22;3281;47.658;9.166;2023-03-08T16:25:38;11.00;1.00
6496;DHT22;3281;47.658;9.166;2023-03-08T16:28:08;11.00;1.00
6496;DHT22;3281;47.658;9.166;2023-03-08T16:30:35;10.90;1.00
6496;DHT22;3281;47.658;9.166;2023-03-08T16:33:03;10.90;1.00
6496;DHT22;3281;47.658;9.166;2023-03-08T16:35:30;10.80;1.00
6496;DHT22;3281;47.658;9.166;2023-03-08T16:37:56;10.80;1.00
6496;DHT22;3281;47.658;9.166;2023-03-08T16:40:23;10.70;1.00
6496;DHT22;3281;47.658;9.166;2023-03-08T16:42:55;10.60;1.00
6496;DHT22;3281;47.658;9.166;2023-03-08T16:45:23;10.60;1.00
6496;DHT22;3281;47.658;9.166;2023-03-08T16:47:50;10.60;1.00